KRDM/RDM METAR and TAF weather

Enter ICAO airport designator
Station Type Date Time Source
KRDM METAR 2021/09/28 15:56 UTC NOAA

KRDM 281556Z 00000KT 10SM SCT049 09/03 A3007 RMK AO2 SLP182 T00890033


Station Type Date Time Source
KRDM Decoded METAR 2021/09/28 15:56 UTC NOAA

REDMOND ROBERTS FIELD, OR, United States (KRDM) 44-15N 121-08W
Sep 28, 2021 - 11:56 AM EDT / 2021.09.28 1556 UTC
Wind: Calm:0
Visibility: 10 mile(s):0
Sky conditions: partly cloudy
Temperature: 48.0 F (8.9 C)
Dew Point: 37.9 F (3.3 C)
Relative Humidity: 67%
Pressure (altimeter): 30.07 in. Hg (1018 hPa)
ob: KRDM 281556Z 00000KT 10SM SCT049 09/03 A3007 RMK AO2 SLP182 T00890033
cycle: 16

Station Type Date Time Source
KRDM TAF 2021/09/28 12:36 UTC NOAA

TAF KRDM 281130Z 2812/2912 VRB05KT P6SM FEW050 SCT100
FM281800 32008KT P6SM SCT050 BKN100
FM290400 VRB04KT P6SM FEW050

Example: see airport list